createdAt,value
2023-04-22T00:00:54.771Z,31.37
2023-04-22T00:01:54.751Z,31.38
2023-04-22T00:02:54.979Z,31.40
2023-04-22T00:03:55.025Z,31.41
2023-04-22T00:04:55.178Z,31.40
2023-04-22T00:05:54.796Z,31.42
2023-04-22T00:06:54.819Z,31.42
2023-04-22T00:07:54.800Z,31.43
2023-04-22T00:08:54.828Z,31.43
2023-04-22T00:09:54.831Z,31.44
2023-04-22T00:10:54.851Z,31.46
2023-04-22T00:11:54.862Z,31.43
2023-04-22T00:12:54.884Z,31.44
2023-04-22T00:13:54.908Z,31.45
2023-04-22T00:14:54.901Z,31.43
2023-04-22T00:15:54.999Z,31.48
2023-04-22T00:16:54.926Z,31.45
2023-04-22T00:17:54.986Z,31.47
2023-04-22T00:18:54.957Z,31.47
2023-04-22T00:19:54.973Z,31.48
2023-04-22T00:20:54.988Z,31.51
2023-04-22T00:21:55.006Z,31.50
2023-04-22T00:22:55.025Z,31.50
2023-04-22T00:23:55.094Z,31.51
2023-04-22T00:24:55.054Z,31.53
2023-04-22T00:25:55.055Z,31.56
2023-04-22T00:26:55.061Z,31.53
2023-04-22T00:27:55.070Z,31.53
2023-04-22T00:28:55.075Z,31.54
2023-04-22T00:29:55.100Z,31.57
2023-04-22T00:30:55.145Z,31.60
2023-04-22T00:31:55.184Z,31.60
2023-04-22T00:32:55.265Z,31.60
2023-04-22T00:33:55.165Z,31.59
2023-04-22T00:34:55.171Z,31.61
2023-04-22T00:35:55.185Z,31.60
2023-04-22T00:36:55.196Z,31.61
2023-04-22T00:37:55.211Z,31.64
2023-04-22T00:38:55.235Z,31.62
2023-04-22T00:39:55.238Z,31.66
2023-04-22T00:40:55.243Z,31.65
2023-04-22T00:41:55.267Z,31.67
2023-04-22T00:42:55.270Z,31.64
2023-04-22T00:43:55.295Z,31.65
2023-04-22T00:44:55.302Z,31.64
2023-04-22T00:45:55.315Z,31.64
2023-04-22T00:46:55.378Z,31.68
2023-04-22T00:47:55.396Z,31.68
2023-04-22T00:48:55.345Z,31.68
2023-04-22T00:49:55.357Z,31.68
2023-04-22T00:50:55.378Z,31.69
2023-04-22T00:51:55.391Z,31.71
2023-04-22T00:52:55.405Z,31.72
2023-04-22T00:53:55.407Z,31.74
2023-04-22T00:54:55.421Z,31.71
2023-04-22T00:55:55.445Z,31.73
2023-04-22T00:56:55.445Z,31.75
2023-04-22T00:57:55.467Z,31.73
2023-04-22T00:58:55.476Z,31.72
2023-04-22T00:59:55.491Z,31.75
2023-04-22T01:00:55.525Z,31.75
2023-04-22T01:01:55.536Z,31.75
2023-04-22T01:02:55.760Z,31.77
2023-04-22T01:03:55.693Z,31.76
2023-04-22T01:04:55.564Z,31.77
2023-04-22T01:05:55.578Z,31.79
2023-04-22T01:06:55.595Z,31.79
2023-04-22T01:07:55.623Z,31.79
2023-04-22T01:08:55.605Z,31.80
2023-04-22T01:09:55.615Z,31.78
2023-04-22T01:10:55.635Z,31.82
2023-04-22T01:11:55.650Z,31.83
2023-04-22T01:12:55.672Z,31.83
2023-04-22T01:13:55.705Z,31.84
2023-04-22T01:14:55.719Z,31.83
2023-04-22T01:15:55.759Z,31.83
2023-04-22T01:16:55.868Z,31.85
2023-04-22T01:17:55.791Z,31.86
2023-04-22T01:18:55.796Z,31.88
2023-04-22T01:19:55.822Z,31.88
2023-04-22T01:20:55.830Z,31.89
2023-04-22T01:21:55.863Z,31.90
2023-04-22T01:22:55.847Z,31.89
2023-04-22T01:23:55.878Z,31.87
2023-04-22T01:24:55.892Z,31.90
2023-04-22T01:25:55.909Z,31.92
2023-04-22T01:26:55.910Z,31.90
2023-04-22T01:27:55.935Z,31.90
2023-04-22T01:28:55.949Z,31.91
2023-04-22T01:29:55.962Z,31.90
2023-04-22T01:30:56.010Z,31.90
2023-04-22T01:31:56.056Z,31.91
2023-04-22T01:32:56.036Z,31.91
2023-04-22T01:33:56.021Z,31.92
2023-04-22T01:34:56.029Z,31.92
2023-04-22T01:35:56.047Z,31.93
2023-04-22T01:36:56.052Z,31.91
2023-04-22T01:37:56.079Z,31.93
2023-04-22T01:38:56.078Z,31.93
2023-04-22T01:39:56.092Z,31.93
2023-04-22T01:40:56.111Z,31.93
2023-04-22T01:41:56.119Z,31.94
2023-04-22T01:42:56.142Z,31.96
2023-04-22T01:43:56.153Z,31.95
2023-04-22T01:44:56.187Z,31.95
2023-04-22T01:45:56.239Z,31.94
2023-04-22T01:46:56.204Z,31.96
2023-04-22T01:47:56.357Z,31.96
2023-04-22T01:48:56.238Z,31.96
2023-04-22T01:49:56.263Z,31.96
2023-04-22T01:50:56.278Z,31.99
2023-04-22T01:51:56.287Z,31.97
2023-04-22T01:52:56.329Z,31.98
2023-04-22T01:53:56.313Z,32.00
2023-04-22T01:54:56.327Z,32.02
2023-04-22T01:55:56.344Z,32.01
2023-04-22T01:56:56.353Z,31.99
2023-04-22T01:57:56.361Z,32.00
2023-04-22T01:58:56.362Z,31.98
2023-04-22T01:59:56.373Z,32.03
2023-04-22T02:00:56.383Z,32.04
2023-04-22T02:01:56.490Z,32.03
2023-04-22T02:02:56.469Z,32.04
2023-04-22T02:03:56.402Z,32.05
2023-04-22T02:04:56.451Z,32.06
2023-04-22T02:05:56.434Z,32.05
2023-04-22T02:06:56.438Z,32.07
2023-04-22T02:07:56.452Z,32.06
2023-04-22T02:08:56.464Z,32.07
2023-04-22T02:09:56.485Z,32.07
2023-04-22T02:10:56.515Z,32.09
2023-04-22T02:11:56.500Z,32.08
2023-04-22T02:12:56.526Z,32.11
2023-04-22T02:13:56.527Z,32.10
2023-04-22T02:14:56.541Z,32.09
2023-04-22T02:15:56.565Z,32.10
2023-04-22T02:16:56.570Z,32.10
2023-04-22T02:17:56.597Z,32.12
2023-04-22T02:18:56.610Z,32.11
2023-04-22T02:19:56.635Z,32.11
2023-04-22T02:20:56.633Z,32.13
2023-04-22T02:21:56.634Z,32.11
2023-04-22T02:22:56.650Z,32.13
2023-04-22T02:23:56.660Z,32.15
2023-04-22T02:24:56.672Z,32.14
2023-04-22T02:25:56.694Z,32.13
2023-04-22T02:26:56.692Z,32.14
2023-04-22T02:27:56.715Z,32.14
2023-04-22T02:28:56.721Z,32.14
2023-04-22T02:29:56.728Z,32.19
2023-04-22T02:30:56.806Z,32.16
2023-04-22T02:31:56.796Z,32.17
2023-04-22T02:32:56.803Z,32.18
2023-04-22T02:33:56.792Z,32.14
2023-04-22T02:34:56.786Z,32.18
2023-04-22T02:35:56.790Z,32.17
2023-04-22T02:36:56.808Z,32.18
2023-04-22T02:37:56.832Z,32.18
2023-04-22T02:38:56.839Z,32.18
2023-04-22T02:39:56.858Z,32.17
2023-04-22T02:40:56.863Z,32.20
2023-04-22T02:41:56.868Z,32.18
2023-04-22T02:42:56.887Z,32.20
2023-04-22T02:43:56.885Z,32.20
2023-04-22T02:44:56.909Z,32.21
2023-04-22T02:45:56.918Z,32.22
2023-04-22T02:46:56.934Z,32.24
2023-04-22T02:47:56.979Z,32.25
2023-04-22T02:48:56.945Z,32.25
2023-04-22T02:49:56.965Z,32.25
2023-04-22T02:50:56.977Z,32.26
2023-04-22T02:51:57.022Z,32.25
2023-04-22T02:52:57.013Z,32.23
2023-04-22T02:53:57.051Z,32.25
2023-04-22T02:54:57.032Z,32.28
2023-04-22T02:55:57.054Z,32.26
2023-04-22T02:56:57.059Z,32.27
2023-04-22T02:57:57.080Z,32.27
2023-04-22T02:58:57.103Z,32.28
2023-04-22T02:59:57.130Z,32.28
2023-04-22T03:00:57.220Z,32.29
2023-04-22T03:01:57.193Z,32.28
2023-04-22T03:02:57.363Z,32.29
2023-04-22T03:03:57.400Z,32.30
2023-04-22T03:04:57.204Z,32.31
2023-04-22T03:05:57.225Z,32.28
2023-04-22T03:06:57.236Z,32.28
2023-04-22T03:07:57.253Z,32.30
2023-04-22T03:08:57.298Z,32.29
2023-04-22T03:09:57.286Z,32.30
2023-04-22T03:10:57.311Z,32.31
2023-04-22T03:11:57.321Z,32.32
2023-04-22T03:12:57.338Z,32.31
2023-04-22T03:13:57.360Z,32.31
2023-04-22T03:14:57.384Z,32.31
2023-04-22T03:15:57.400Z,32.33
2023-04-22T03:16:57.430Z,32.33
2023-04-22T03:17:57.481Z,32.35
2023-04-22T03:18:57.447Z,32.35
2023-04-22T03:19:57.458Z,32.33
2023-04-22T03:20:57.467Z,32.34
2023-04-22T03:21:57.483Z,32.35
2023-04-22T03:22:57.492Z,32.34
2023-04-22T03:23:57.511Z,32.35
2023-04-22T03:24:57.525Z,32.37
2023-04-22T03:25:57.548Z,32.37
2023-04-22T03:26:57.559Z,32.36
2023-04-22T03:27:57.574Z,32.36
2023-04-22T03:28:57.587Z,32.39
2023-04-22T03:29:57.603Z,32.38
2023-04-22T03:30:57.622Z,32.37
2023-04-22T03:31:57.694Z,32.37
2023-04-22T03:32:57.754Z,32.41
2023-04-22T03:33:57.677Z,32.37
2023-04-22T03:34:57.686Z,32.38
2023-04-22T03:35:57.703Z,32.40
2023-04-22T03:36:57.723Z,32.40
2023-04-22T03:37:57.746Z,32.39
2023-04-22T03:38:57.764Z,32.40
2023-04-22T03:39:57.794Z,32.41
2023-04-22T03:40:57.787Z,32.39
2023-04-22T03:41:57.810Z,32.42
2023-04-22T03:42:57.833Z,32.42
2023-04-22T03:44:00.307Z,32.39
2023-04-22T03:44:57.837Z,32.39
2023-04-22T03:45:57.887Z,32.43
2023-04-22T03:46:57.853Z,32.42
2023-04-22T03:47:57.893Z,32.42
2023-04-22T03:48:57.879Z,32.41
2023-04-22T03:49:57.876Z,32.43
2023-04-22T03:50:57.880Z,32.46
2023-04-22T03:51:57.907Z,32.43
2023-04-22T03:52:57.889Z,32.45
2023-04-22T03:53:57.899Z,32.42
2023-04-22T03:54:57.896Z,32.46
2023-04-22T03:55:57.899Z,32.46
2023-04-22T03:56:57.903Z,32.45
2023-04-22T03:57:57.906Z,32.46
2023-04-22T03:58:57.910Z,32.49
2023-04-22T03:59:57.914Z,32.48
2023-04-22T04:00:57.910Z,32.51
2023-04-22T04:01:57.941Z,32.49
2023-04-22T04:02:58.045Z,32.52
2023-04-22T04:03:58.039Z,32.54
2023-04-22T04:04:58.117Z,32.56
2023-04-22T04:05:57.922Z,32.55
2023-04-22T04:06:57.892Z,32.55
2023-04-22T04:07:57.879Z,32.55
2023-04-22T04:08:57.883Z,32.52
2023-04-22T04:09:57.887Z,32.54
2023-04-22T04:10:57.891Z,32.54
2023-04-22T04:11:57.885Z,32.55
2023-04-22T04:12:57.896Z,32.56
2023-04-22T04:13:57.892Z,32.58
2023-04-22T04:14:57.897Z,32.56
2023-04-22T04:15:57.951Z,32.56
2023-04-22T04:16:57.899Z,32.55
2023-04-22T04:17:57.950Z,32.56
2023-04-22T04:18:57.909Z,32.58
2023-04-22T04:19:57.905Z,32.57
2023-04-22T04:20:57.892Z,32.60
2023-04-22T04:21:57.908Z,32.62
2023-04-22T04:22:57.908Z,32.58
2023-04-22T04:23:57.908Z,32.60
2023-04-22T04:24:57.905Z,32.58
2023-04-22T04:25:57.924Z,32.57
2023-04-22T04:26:57.919Z,32.59
2023-04-22T04:27:57.921Z,32.60
2023-04-22T04:28:57.911Z,32.60
2023-04-22T04:29:57.908Z,32.60
2023-04-22T04:30:57.910Z,32.59
2023-04-22T04:31:57.898Z,32.59
2023-04-22T04:32:57.957Z,32.62
2023-04-22T04:33:57.897Z,32.59
2023-04-22T04:34:57.878Z,32.59
2023-04-22T04:35:57.864Z,32.60
2023-04-22T04:36:57.857Z,32.60
2023-04-22T04:37:57.855Z,32.61
2023-04-22T04:38:57.862Z,32.62
2023-04-22T04:39:57.868Z,32.59
2023-04-22T04:40:57.866Z,32.60
2023-04-22T04:41:57.917Z,32.64
2023-04-22T04:42:57.873Z,32.66
2023-04-22T04:43:57.883Z,32.65
2023-04-22T04:44:57.881Z,32.61
2023-04-22T04:45:57.880Z,32.64
2023-04-22T04:46:57.991Z,32.64
2023-04-22T04:47:57.911Z,32.63
2023-04-22T04:48:57.880Z,32.62
2023-04-22T04:49:57.924Z,32.63
2023-04-22T04:50:57.875Z,32.65
2023-04-22T04:51:57.870Z,32.63
2023-04-22T04:52:57.859Z,32.64
2023-04-22T04:53:57.865Z,32.61
2023-04-22T04:54:57.853Z,32.64
2023-04-22T04:55:57.860Z,32.62
2023-04-22T04:56:57.857Z,32.64
2023-04-22T04:57:57.850Z,32.64
2023-04-22T04:58:57.866Z,32.61
2023-04-22T04:59:57.863Z,32.63
2023-04-22T05:00:57.877Z,32.64
2023-04-22T05:01:57.919Z,32.63
2023-04-22T05:02:58.030Z,32.62
2023-04-22T05:03:58.114Z,32.62
2023-04-22T05:04:58.000Z,32.64
2023-04-22T05:05:57.899Z,32.63
2023-04-22T05:06:57.898Z,32.64
2023-04-22T05:07:57.907Z,32.65
2023-04-22T05:08:57.906Z,32.67
2023-04-22T05:09:57.920Z,32.66
2023-04-22T05:10:57.914Z,32.63
2023-04-22T05:11:57.911Z,32.65
2023-04-22T05:12:57.908Z,32.63
2023-04-22T05:13:57.895Z,32.63
2023-04-22T05:14:57.900Z,32.64
2023-04-22T05:15:57.970Z,32.63
2023-04-22T05:16:57.924Z,32.66
2023-04-22T05:17:57.928Z,32.66
2023-04-22T05:18:57.890Z,32.65
2023-04-22T05:19:57.884Z,32.66
2023-04-22T05:20:57.886Z,32.65
2023-04-22T05:21:57.896Z,32.66
2023-04-22T05:22:57.878Z,32.67
2023-04-22T05:23:57.874Z,32.67
2023-04-22T05:24:57.884Z,32.67
2023-04-22T05:25:57.897Z,32.67
2023-04-22T05:26:57.892Z,32.67
2023-04-22T05:27:57.896Z,32.66
2023-04-22T05:28:57.883Z,32.67
2023-04-22T05:29:57.887Z,32.68
2023-04-22T05:30:57.898Z,32.69
2023-04-22T05:31:57.964Z,32.67
2023-04-22T05:32:57.967Z,32.68
2023-04-22T05:33:57.947Z,32.68
2023-04-22T05:34:57.978Z,32.68
2023-04-22T05:35:57.996Z,32.70
2023-04-22T05:36:58.029Z,32.70
2023-04-22T05:37:58.038Z,32.67
2023-04-22T05:38:58.065Z,32.70
2023-04-22T05:39:58.090Z,32.68
2023-04-22T05:40:58.161Z,32.69
2023-04-22T05:41:58.130Z,32.68
2023-04-22T05:42:58.163Z,32.68
2023-04-22T05:43:58.181Z,32.67
2023-04-22T05:44:58.200Z,32.68
2023-04-22T05:45:58.234Z,32.68
2023-04-22T05:46:58.239Z,32.67
2023-04-22T05:47:58.312Z,32.69
2023-04-22T05:48:58.286Z,32.68
2023-04-22T05:49:58.314Z,32.67
2023-04-22T05:50:58.350Z,32.68
2023-04-22T05:51:58.351Z,32.67
2023-04-22T05:52:58.379Z,32.67
2023-04-22T05:53:58.391Z,32.64
2023-04-22T05:54:58.419Z,32.62
2023-04-22T05:55:58.434Z,32.67
2023-04-22T05:56:58.454Z,32.66
2023-04-22T05:57:58.485Z,32.62
2023-04-22T05:58:58.486Z,32.65
2023-04-22T05:59:58.498Z,32.63
2023-04-22T06:00:58.531Z,32.66
2023-04-22T06:01:58.539Z,32.62
2023-04-22T06:02:58.679Z,32.57
2023-04-22T06:03:58.966Z,32.55
2023-04-22T06:04:58.998Z,32.50
2023-04-22T06:05:58.648Z,32.47
2023-04-22T06:06:58.610Z,32.44
2023-04-22T06:07:58.618Z,32.39
2023-04-22T06:08:58.632Z,32.34
2023-04-22T06:10:04.694Z,32.28
2023-04-22T06:10:59.633Z,32.27
2023-04-22T06:11:58.623Z,32.24
2023-04-22T06:12:58.623Z,32.24
2023-04-22T06:13:58.620Z,32.22
2023-04-22T06:14:58.614Z,32.18
2023-04-22T06:15:58.654Z,32.15
2023-04-22T06:16:58.613Z,32.18
2023-04-22T06:17:58.738Z,32.20
2023-04-22T06:18:58.648Z,32.22
2023-04-22T06:19:58.604Z,32.24
2023-04-22T06:20:58.603Z,32.22
2023-04-22T06:21:58.587Z,32.22
2023-04-22T06:22:58.583Z,32.20
2023-04-22T06:23:58.572Z,32.16
2023-04-22T06:24:58.566Z,32.15
2023-04-22T06:25:58.576Z,32.14
2023-04-22T06:26:58.545Z,32.12
2023-04-22T06:27:58.541Z,32.13
2023-04-22T06:28:58.556Z,32.10
2023-04-22T06:29:58.548Z,32.09
2023-04-22T06:30:58.563Z,32.08
2023-04-22T06:31:58.531Z,32.09
2023-04-22T06:32:58.561Z,32.08
2023-04-22T06:33:58.515Z,32.05
2023-04-22T06:34:58.527Z,32.05
2023-04-22T06:35:58.522Z,32.04
2023-04-22T06:36:58.509Z,32.02
2023-04-22T06:37:58.521Z,32.05
2023-04-22T06:38:58.502Z,32.01
2023-04-22T06:39:58.505Z,32.03
2023-04-22T06:40:58.500Z,32.01
2023-04-22T06:41:58.488Z,32.01
2023-04-22T06:42:58.485Z,31.98
2023-04-22T06:43:58.488Z,31.98
2023-04-22T06:44:58.476Z,31.98
2023-04-22T06:45:58.468Z,31.96
2023-04-22T06:46:58.588Z,31.96
2023-04-22T06:47:58.547Z,31.93
2023-04-22T06:48:58.478Z,31.93
2023-04-22T06:49:58.537Z,31.90
2023-04-22T06:50:58.593Z,31.91
2023-04-22T06:51:58.645Z,31.87
2023-04-22T06:52:58.691Z,31.86
2023-04-22T06:53:58.762Z,31.83
2023-04-22T06:54:58.816Z,31.86
2023-04-22T06:55:58.874Z,31.83
2023-04-22T06:56:58.932Z,31.79
2023-04-22T06:57:58.992Z,31.76
2023-04-22T06:58:59.040Z,31.78
2023-04-22T06:59:59.103Z,31.73
2023-04-22T07:00:59.164Z,31.70
2023-04-22T07:01:59.231Z,31.67
2023-04-22T07:02:59.289Z,31.65
2023-04-22T07:03:59.342Z,31.63
2023-04-22T07:04:59.379Z,31.61
2023-04-22T07:05:59.438Z,31.58
2023-04-22T07:06:59.485Z,31.55
2023-04-22T07:07:59.543Z,31.56
2023-04-22T07:08:59.592Z,31.53
2023-04-22T07:09:59.646Z,31.51
2023-04-22T07:10:59.702Z,31.49
2023-04-22T07:11:59.746Z,31.50
2023-04-22T07:12:59.782Z,31.47
2023-04-22T07:13:59.844Z,31.46
2023-04-22T07:14:59.883Z,31.45
2023-04-22T07:15:59.977Z,31.44
2023-04-22T07:16:59.975Z,31.41
2023-04-22T07:18:00.068Z,31.38
2023-04-22T07:19:00.054Z,31.38
2023-04-22T07:20:00.123Z,31.38
2023-04-22T07:21:00.179Z,31.35
2023-04-22T07:22:00.172Z,31.34
2023-04-22T07:23:00.196Z,31.32
2023-04-22T07:24:00.235Z,31.26
2023-04-22T07:25:00.263Z,31.27
2023-04-22T07:26:00.309Z,31.27
2023-04-22T07:27:00.345Z,31.22
2023-04-22T07:28:00.374Z,31.23
2023-04-22T07:29:00.396Z,31.19
2023-04-22T07:30:00.437Z,31.21
2023-04-22T07:31:00.465Z,31.19
2023-04-22T07:32:00.520Z,31.17
2023-04-22T07:33:00.617Z,31.15
2023-04-22T07:34:00.552Z,31.13
2023-04-22T07:35:00.565Z,31.11
2023-04-22T07:36:00.594Z,31.12
2023-04-22T07:37:00.599Z,31.09
2023-04-22T07:38:00.632Z,31.07
2023-04-22T07:39:00.664Z,31.06
2023-04-22T07:40:00.707Z,31.03
2023-04-22T07:41:00.722Z,31.04
2023-04-22T07:42:00.730Z,31.02
2023-04-22T07:43:00.761Z,31.00
2023-04-22T07:44:00.786Z,30.97
2023-04-22T07:45:01.046Z,30.97
2023-04-22T07:46:00.870Z,30.93
2023-04-22T07:47:00.870Z,30.94
2023-04-22T07:48:00.945Z,30.90
2023-04-22T07:49:00.931Z,30.88
2023-04-22T07:50:00.953Z,30.88
2023-04-22T07:51:00.986Z,30.86
2023-04-22T07:52:01.005Z,30.85
2023-04-22T07:53:01.102Z,30.84
2023-04-22T07:54:01.064Z,30.84
2023-04-22T07:55:01.081Z,30.83
2023-04-22T07:56:02.227Z,30.84
2023-04-22T07:57:01.130Z,30.82
2023-04-22T07:58:01.253Z,30.84
2023-04-22T07:59:01.171Z,30.84
2023-04-22T08:00:01.192Z,30.86
2023-04-22T08:01:01.258Z,30.87
2023-04-22T08:02:01.273Z,30.85
2023-04-22T08:03:01.396Z,30.89
2023-04-22T08:04:01.502Z,30.88
2023-04-22T08:05:01.329Z,30.90
2023-04-22T08:06:01.317Z,30.91
2023-04-22T08:07:01.908Z,30.93
2023-04-22T08:08:01.309Z,30.95
2023-04-22T08:09:01.321Z,30.97
2023-04-22T08:10:01.267Z,31.01
2023-04-22T08:11:01.246Z,31.03
2023-04-22T08:12:01.215Z,31.05
2023-04-22T08:13:01.202Z,31.06
2023-04-22T08:14:01.192Z,31.06
2023-04-22T08:15:01.242Z,31.12
2023-04-22T08:16:01.225Z,31.13
2023-04-22T08:17:01.166Z,31.13
2023-04-22T08:18:01.194Z,31.15
2023-04-22T08:19:01.111Z,31.16
2023-04-22T08:20:01.121Z,31.18
2023-04-22T08:21:01.098Z,31.19
2023-04-22T08:22:01.073Z,31.23
2023-04-22T08:23:01.060Z,31.25
2023-04-22T08:24:01.036Z,31.27
2023-04-22T08:25:01.017Z,31.28
2023-04-22T08:26:00.991Z,31.32
2023-04-22T08:27:00.965Z,31.34
2023-04-22T08:28:00.955Z,31.34
2023-04-22T08:29:00.937Z,31.34
2023-04-22T08:30:01.154Z,31.36
2023-04-22T08:31:00.991Z,31.37
2023-04-22T08:32:00.937Z,31.38
2023-04-22T08:33:01.004Z,31.42
2023-04-22T08:34:00.991Z,31.43
2023-04-22T08:35:04.976Z,31.43
2023-04-22T08:36:01.011Z,31.45
2023-04-22T08:37:00.992Z,31.46
2023-04-22T08:38:01.654Z,31.46
2023-04-22T08:39:00.973Z,31.49
2023-04-22T08:40:00.969Z,31.50
2023-04-22T08:41:00.941Z,31.49
2023-04-22T08:42:00.920Z,31.51
2023-04-22T08:43:00.924Z,31.52
2023-04-22T08:44:00.902Z,31.51
2023-04-22T08:45:01.082Z,31.53
2023-04-22T08:46:00.882Z,31.55
2023-04-22T08:47:02.743Z,31.56
2023-04-22T08:48:00.920Z,31.57
2023-04-22T08:49:00.855Z,31.57
2023-04-22T08:50:00.830Z,31.58
2023-04-22T08:51:00.838Z,31.58
2023-04-22T08:52:00.829Z,31.60
2023-04-22T08:53:00.796Z,31.60
2023-04-22T08:54:00.811Z,31.61
2023-04-22T08:55:00.837Z,31.59
2023-04-22T08:56:00.868Z,31.60
2023-04-22T08:57:00.905Z,31.62
2023-04-22T08:58:00.939Z,31.61
2023-04-22T08:59:00.958Z,31.61
2023-04-22T09:00:01.160Z,31.58
2023-04-22T09:01:01.018Z,31.59
2023-04-22T09:02:01.070Z,31.59
2023-04-22T09:03:01.164Z,31.60
2023-04-22T09:04:01.207Z,31.64
2023-04-22T09:05:01.143Z,31.61
2023-04-22T09:06:01.160Z,31.62
2023-04-22T09:07:01.186Z,31.63
2023-04-22T09:08:01.206Z,31.61
2023-04-22T09:09:01.241Z,31.62
2023-04-22T09:10:01.277Z,31.63
2023-04-22T09:11:01.311Z,31.62
2023-04-22T09:12:01.327Z,31.61
2023-04-22T09:13:01.375Z,31.60
2023-04-22T09:14:01.407Z,31.60
2023-04-22T09:15:01.438Z,31.60
2023-04-22T09:16:01.581Z,31.60
2023-04-22T09:17:01.543Z,31.59
2023-04-22T09:18:01.570Z,31.61
2023-04-22T09:19:01.541Z,31.60
2023-04-22T09:20:01.625Z,31.59
2023-04-22T09:21:01.593Z,31.60
2023-04-22T09:22:01.614Z,31.59
2023-04-22T09:23:01.637Z,31.57
2023-04-22T09:24:01.666Z,31.59
2023-04-22T09:25:01.672Z,31.58
2023-04-22T09:26:01.709Z,31.60
2023-04-22T09:27:01.723Z,31.59
2023-04-22T09:28:01.749Z,31.62
2023-04-22T09:29:01.778Z,31.62
2023-04-22T09:30:01.808Z,31.60
2023-04-22T09:31:01.829Z,31.62
2023-04-22T09:32:01.875Z,31.62
2023-04-22T09:33:01.966Z,31.62
2023-04-22T09:34:01.933Z,31.62
2023-04-22T09:35:01.912Z,31.63
2023-04-22T09:36:01.899Z,31.61
2023-04-22T09:37:01.896Z,31.62
2023-04-22T09:38:01.909Z,31.63
2023-04-22T09:39:01.906Z,31.62
2023-04-22T09:40:01.921Z,31.64
2023-04-22T09:41:01.943Z,31.62
2023-04-22T09:42:01.971Z,31.63
2023-04-22T09:43:02.000Z,31.64
2023-04-22T09:44:02.004Z,31.62
2023-04-22T09:45:02.428Z,31.65
2023-04-22T09:46:02.137Z,31.64
2023-04-22T09:47:02.050Z,31.65
2023-04-22T09:48:02.115Z,31.65
2023-04-22T09:49:02.097Z,31.64
2023-04-22T09:50:02.121Z,31.67
2023-04-22T09:51:02.143Z,31.66
2023-04-22T09:52:02.166Z,31.66
2023-04-22T09:53:02.175Z,31.66
2023-04-22T09:54:02.192Z,31.66
2023-04-22T09:55:02.214Z,31.68
2023-04-22T09:56:02.231Z,31.66
2023-04-22T09:57:02.261Z,31.69
2023-04-22T09:58:02.261Z,31.70
2023-04-22T09:59:02.285Z,31.69
2023-04-22T10:00:02.298Z,31.70
2023-04-22T10:01:02.373Z,31.69
2023-04-22T10:02:02.401Z,31.71
2023-04-22T10:03:02.415Z,31.68
2023-04-22T10:04:02.452Z,31.69
2023-04-22T10:05:02.391Z,31.70
2023-04-22T10:06:02.468Z,31.71
2023-04-22T10:07:02.445Z,31.74
2023-04-22T10:08:02.459Z,31.70
2023-04-22T10:09:02.769Z,31.73
2023-04-22T10:10:02.469Z,31.74
2023-04-22T10:11:02.511Z,31.74
2023-04-22T10:12:02.519Z,31.72
2023-04-22T10:13:02.524Z,31.74
2023-04-22T10:14:02.579Z,31.76
2023-04-22T10:15:02.578Z,31.76
2023-04-22T10:16:02.577Z,31.75
2023-04-22T10:17:02.642Z,31.79
2023-04-22T10:18:02.645Z,31.79
2023-04-22T10:19:02.633Z,31.79
2023-04-22T10:20:02.646Z,31.79
2023-04-22T10:21:02.665Z,31.79
2023-04-22T10:22:02.717Z,31.81
2023-04-22T10:23:02.688Z,31.79
2023-04-22T10:24:02.701Z,31.81
2023-04-22T10:25:02.718Z,31.82
2023-04-22T10:26:02.743Z,31.82
2023-04-22T10:27:02.759Z,31.85
2023-04-22T10:28:02.912Z,31.85
2023-04-22T10:29:02.787Z,31.83
2023-04-22T10:30:02.794Z,31.89
2023-04-22T10:31:02.830Z,31.86
2023-04-22T10:32:02.827Z,31.89
2023-04-22T10:33:02.839Z,31.89
2023-04-22T10:34:02.859Z,31.89
2023-04-22T10:35:02.887Z,31.90
2023-04-22T10:36:02.909Z,31.92
2023-04-22T10:37:02.918Z,31.91
2023-04-22T10:38:02.946Z,31.95
2023-04-22T10:39:02.962Z,31.94
2023-04-22T10:40:02.972Z,31.96
2023-04-22T10:41:03.005Z,31.96
2023-04-22T10:42:03.019Z,31.96
2023-04-22T10:43:03.041Z,31.96
2023-04-22T10:44:03.062Z,31.98
2023-04-22T10:45:03.094Z,31.99
2023-04-22T10:46:03.127Z,31.99
2023-04-22T10:47:03.106Z,32.02
2023-04-22T10:48:03.179Z,32.01
2023-04-22T10:49:04.613Z,32.01
2023-04-22T10:50:03.136Z,32.03
2023-04-22T10:51:03.137Z,32.04
2023-04-22T10:52:03.124Z,32.04
2023-04-22T10:53:03.164Z,32.05
2023-04-22T10:54:03.096Z,32.06
2023-04-22T10:55:03.088Z,32.09
2023-04-22T10:56:03.082Z,32.07
2023-04-22T10:57:03.072Z,32.10
2023-04-22T10:58:03.055Z,32.10
2023-04-22T10:59:03.042Z,32.10
2023-04-22T11:00:03.039Z,32.11
2023-04-22T11:01:03.025Z,32.12
2023-04-22T11:02:03.096Z,32.13
2023-04-22T11:03:03.117Z,32.14
2023-04-22T11:04:03.080Z,32.16
2023-04-22T11:05:02.992Z,32.16
2023-04-22T11:06:02.995Z,32.17
2023-04-22T11:07:02.964Z,32.18
2023-04-22T11:08:02.955Z,32.19
2023-04-22T11:09:02.933Z,32.20
2023-04-22T11:10:02.921Z,32.21
2023-04-22T11:11:02.904Z,32.20
2023-04-22T11:12:02.892Z,32.23
2023-04-22T11:13:02.859Z,32.25
2023-04-22T11:14:02.842Z,32.24
2023-04-22T11:15:02.839Z,32.26
2023-04-22T11:16:02.866Z,32.27
2023-04-22T11:17:02.810Z,32.26
2023-04-22T11:18:02.813Z,32.25
2023-04-22T11:19:02.783Z,32.27
2023-04-22T11:20:02.768Z,32.28
2023-04-22T11:21:02.750Z,32.28
2023-04-22T11:22:02.746Z,32.30
2023-04-22T11:23:02.729Z,32.28
2023-04-22T11:24:02.728Z,32.31
2023-04-22T11:25:02.716Z,32.30
2023-04-22T11:26:02.733Z,32.31
2023-04-22T11:27:02.702Z,32.32
2023-04-22T11:28:02.683Z,32.32
2023-04-22T11:29:02.682Z,32.31
2023-04-22T11:30:02.678Z,32.32
2023-04-22T11:31:02.675Z,32.34
2023-04-22T11:32:02.761Z,32.34
2023-04-22T11:33:02.696Z,32.34
2023-04-22T11:34:02.668Z,32.37
2023-04-22T11:35:02.652Z,32.34
2023-04-22T11:36:02.653Z,32.38
2023-04-22T11:37:02.645Z,32.38
2023-04-22T11:38:02.619Z,32.39
2023-04-22T11:39:02.622Z,32.40
2023-04-22T11:41:03.617Z,32.41
2023-04-22T11:42:02.602Z,32.41
2023-04-22T11:43:02.572Z,32.44
2023-04-22T11:44:02.589Z,32.42
2023-04-22T11:45:02.556Z,32.45
2023-04-22T11:46:02.590Z,32.41
2023-04-22T11:47:02.548Z,32.45
2023-04-22T11:48:02.614Z,32.44
2023-04-22T11:49:02.512Z,32.47
2023-04-22T11:50:02.497Z,32.46
2023-04-22T11:51:02.490Z,32.46
2023-04-22T11:52:02.477Z,32.46
2023-04-22T11:53:02.474Z,32.47
2023-04-22T11:54:02.455Z,32.48
2023-04-22T11:55:02.446Z,32.48
2023-04-22T11:56:02.444Z,32.50
2023-04-22T11:57:02.426Z,32.50
2023-04-22T11:58:02.450Z,32.51
2023-04-22T11:59:02.479Z,32.53
2023-04-22T12:00:02.510Z,32.51
2023-04-22T12:01:02.555Z,32.53
2023-04-22T12:02:02.689Z,32.52
2023-04-22T12:03:02.794Z,32.51
2023-04-22T12:04:02.815Z,32.54
2023-04-22T12:05:02.686Z,32.52
2023-04-22T12:06:02.704Z,32.55
2023-04-22T12:07:02.730Z,32.56
2023-04-22T12:08:02.759Z,32.57
2023-04-22T12:09:02.792Z,32.57
2023-04-22T12:10:02.818Z,32.57
2023-04-22T12:11:02.852Z,32.57
2023-04-22T12:12:02.896Z,32.59
2023-04-22T12:13:02.913Z,32.58
2023-04-22T12:14:02.941Z,32.59
2023-04-22T12:15:02.988Z,32.61
2023-04-22T12:16:03.012Z,32.60
2023-04-22T12:17:03.061Z,32.60
2023-04-22T12:18:03.067Z,32.60
2023-04-22T12:19:03.094Z,32.62
2023-04-22T12:20:03.149Z,32.62
2023-04-22T12:21:03.168Z,32.62
2023-04-22T12:22:03.174Z,32.62
2023-04-22T12:23:03.196Z,32.63
2023-04-22T12:24:03.222Z,32.62
2023-04-22T12:25:03.252Z,32.64
2023-04-22T12:26:03.268Z,32.64
2023-04-22T12:27:03.312Z,32.66
2023-04-22T12:28:03.324Z,32.64
2023-04-22T12:29:03.737Z,32.66
2023-04-22T12:30:03.388Z,32.68
2023-04-22T12:31:03.449Z,32.66
2023-04-22T12:32:03.428Z,32.68
2023-04-22T12:33:03.458Z,32.68
2023-04-22T12:34:03.524Z,32.68
2023-04-22T12:35:03.525Z,32.68
2023-04-22T12:36:03.557Z,32.68
2023-04-22T12:37:03.572Z,32.69
2023-04-22T12:38:03.613Z,32.71
2023-04-22T12:39:03.635Z,32.70
2023-04-22T12:40:03.665Z,32.69
2023-04-22T12:41:03.693Z,32.70
2023-04-22T12:42:03.814Z,32.71
2023-04-22T12:43:03.760Z,32.72
2023-04-22T12:44:03.795Z,32.73
2023-04-22T12:45:03.824Z,32.71
2023-04-22T12:46:03.939Z,32.73
2023-04-22T12:47:03.884Z,32.74
2023-04-22T12:48:03.910Z,32.74
2023-04-22T12:49:03.932Z,32.74
2023-04-22T12:50:03.976Z,32.74
2023-04-22T12:51:04.000Z,32.73
2023-04-22T12:52:04.032Z,32.73
2023-04-22T12:53:04.073Z,32.74
2023-04-22T12:54:04.096Z,32.74